Time;durP1;ratioP1;P1;durP2;ratioP2;P2;SDS_P1;SDS_P2;PMS_P1;PMS_P2;Temp;Humidity;BMP_temperature;BMP_pressure;BME280_temperature;BME280_humidity;BME280_pressure;Samples;Min_cycle;Max_cycle;Signal;HPM_P1;HPM_P2
2023/12/14 00:01:14;;;;;;;2.40;2.20;;;6.40;71.90;;;;;;5020309;28;20022;-88
2023/12/14 00:03:41;;;;;;;2.28;2.17;;;6.40;71.90;;;;;;5038521;28;20044;-89
2023/12/14 00:06:10;;;;;;;2.55;2.35;;;6.30;71.90;;;;;;5038137;28;20384;-88
2023/12/14 00:08:36;;;;;;;2.72;2.45;;;6.30;71.90;;;;;;5017238;28;20053;-90
2023/12/14 00:11:10;;;;;;;2.65;2.45;;;6.30;71.90;;;;;;5031933;28;20044;-88
2023/12/14 00:13:37;;;;;;;2.50;2.30;;;6.30;71.90;;;;;;5019905;28;20037;-89
2023/12/14 00:16:03;;;;;;;2.25;2.05;;;6.30;71.90;;;;;;5039000;28;20033;-89
2023/12/14 00:18:31;;;;;;;2.40;2.20;;;6.30;71.90;;;;;;5037500;28;20478;-88
2023/12/14 00:20:57;;;;;;;2.63;2.40;;;6.30;71.80;;;;;;5038007;28;20108;-88
2023/12/14 00:23:23;;;;;;;2.85;2.65;;;6.30;71.80;;;;;;5019616;28;20502;-87
2023/12/14 00:25:49;;;;;;;2.47;2.28;;;6.30;71.90;;;;;;5020446;28;20034;-90
2023/12/14 00:28:15;;;;;;;2.80;2.50;;;6.30;71.90;;;;;;5019151;28;20384;-89
2023/12/14 00:30:41;;;;;;;2.30;2.10;;;6.30;71.80;;;;;;5039518;28;20021;-89
2023/12/14 00:33:07;;;;;;;2.70;2.50;;;6.30;71.90;;;;;;5038724;28;20451;-89
2023/12/14 00:35:33;;;;;;;2.78;2.50;;;6.30;71.90;;;;;;5041823;28;20438;-91
2023/12/14 00:37:58;;;;;;;2.65;2.45;;;6.30;71.80;;;;;;5041351;28;20026;-89
2023/12/14 00:40:25;;;;;;;2.53;2.33;;;6.20;71.80;;;;;;5042162;28;20029;-90
2023/12/14 00:42:50;;;;;;;2.42;2.22;;;6.20;71.80;;;;;;5043001;28;20048;-88
2023/12/14 00:45:16;;;;;;;2.85;2.45;;;6.20;71.80;;;;;;5043377;28;20026;-89
2023/12/14 00:47:42;;;;;;;2.63;2.40;;;6.20;71.90;;;;;;5044016;28;20036;-88
2023/12/14 00:50:08;;;;;;;2.50;2.30;;;6.20;72.40;;;;;;5042796;28;20037;-89
2023/12/14 00:52:34;;;;;;;2.50;2.30;;;6.20;71.80;;;;;;5040470;28;20058;-89
2023/12/14 00:55:00;;;;;;;2.40;2.20;;;6.20;71.80;;;;;;5030055;28;20073;-88
2023/12/14 00:57:26;;;;;;;2.40;2.20;;;6.20;71.90;;;;;;5024383;28;20033;-89
2023/12/14 00:59:51;;;;;;;2.65;2.45;;;6.20;72.40;;;;;;5039109;28;20498;-88
2023/12/14 01:02:17;;;;;;;2.60;2.40;;;6.20;71.80;;;;;;5038083;28;20037;-90
2023/12/14 01:04:43;;;;;;;2.20;2.10;;;6.20;71.70;;;;;;5020520;28;20037;-89
2023/12/14 01:07:09;;;;;;;2.40;2.20;;;6.20;71.70;;;;;;5038254;28;20041;-90
2023/12/14 01:09:35;;;;;;;2.90;2.15;;;6.20;71.70;;;;;;5038323;28;20037;-90
2023/12/14 01:12:01;;;;;;;2.47;2.28;;;6.10;71.70;;;;;;5037295;28;20493;-89
2023/12/14 01:14:27;;;;;;;2.40;2.20;;;6.10;71.70;;;;;;5038144;28;20124;-89
2023/12/14 01:16:52;;;;;;;2.30;2.10;;;6.20;71.90;;;;;;5039029;28;20391;-91
2023/12/14 01:19:18;;;;;;;2.40;2.20;;;6.10;71.80;;;;;;5020329;28;20484;-90
2023/12/14 01:21:44;;;;;;;2.25;2.05;;;6.10;71.80;;;;;;5038858;28;20053;-90
2023/12/14 01:24:10;;;;;;;2.40;2.20;;;6.10;71.80;;;;;;5003378;28;20040;-90
2023/12/14 01:26:36;;;;;;;2.70;2.50;;;6.10;71.80;;;;;;5035644;28;20029;-91
2023/12/14 01:29:02;;;;;;;2.30;2.10;;;6.10;71.70;;;;;;5036169;28;20033;-89
2023/12/14 01:31:28;;;;;;;3.25;2.30;;;6.10;71.70;;;;;;5012199;28;20030;-90
2023/12/14 01:33:53;;;;;;;2.50;2.30;;;6.10;71.70;;;;;;5037722;28;20033;-90
2023/12/14 01:36:25;;;;;;;2.50;2.30;;;6.10;71.80;;;;;;5038201;28;20037;-88
2023/12/14 01:38:51;;;;;;;2.63;2.40;;;6.00;71.80;;;;;;5038733;28;20025;-88
2023/12/14 01:41:17;;;;;;;2.85;2.58;;;6.10;71.80;;;;;;5020648;28;20376;-89
2023/12/14 01:43:43;;;;;;;3.20;2.70;;;6.10;71.90;;;;;;5018565;28;20045;-89
2023/12/14 01:46:09;;;;;;;3.00;2.70;;;6.10;71.80;;;;;;5018526;28;20484;-90
2023/12/14 01:48:35;;;;;;;2.70;2.50;;;6.10;71.70;;;;;;5036695;28;20108;-89
2023/12/14 01:51:01;;;;;;;2.50;2.30;;;6.10;71.80;;;;;;5037207;28;20454;-89
2023/12/14 01:53:27;;;;;;;2.92;2.60;;;6.00;71.70;;;;;;5022699;28;20052;-91
2023/12/14 01:55:52;;;;;;;2.60;2.30;;;6.10;71.80;;;;;;5038064;28;20036;-91
2023/12/14 01:58:18;;;;;;;2.80;2.50;;;6.10;71.80;;;;;;5037745;28;20029;-90
2023/12/14 02:00:55;;;;;;;2.70;2.50;;;6.10;71.70;;;;;;5038339;28;20029;-91
2023/12/14 02:03:21;;;;;;;2.70;2.40;;;6.00;71.70;;;;;;5017836;28;20485;-91
2023/12/14 02:05:47;;;;;;;3.30;2.60;;;6.00;71.80;;;;;;5017604;28;20064;-88
2023/12/14 02:08:13;;;;;;;2.63;2.40;;;6.00;71.80;;;;;;5020643;28;20029;-92
2023/12/14 02:10:39;;;;;;;3.35;2.75;;;6.00;71.80;;;;;;5020208;28;20025;-89
2023/12/14 02:13:05;;;;;;;2.75;2.45;;;6.00;71.80;;;;;;5018214;28;20030;-91
2023/12/14 02:15:31;;;;;;;2.80;2.60;;;6.00;71.70;;;;;;5007244;28;20033;-91
2023/12/14 02:17:57;;;;;;;3.55;2.88;;;6.00;71.70;;;;;;5040755;28;20032;-89
2023/12/14 02:20:22;;;;;;;2.80;2.42;;;6.00;71.80;;;;;;5027059;28;20053;-91
2023/12/14 02:22:55;;;;;;;3.00;2.65;;;6.00;71.70;;;;;;5047407;28;20036;-88
2023/12/14 02:25:22;;;;;;;3.65;2.90;;;6.00;71.70;;;;;;5031701;28;20034;-90
2023/12/14 02:27:51;;;;;;;3.80;3.20;;;6.00;71.70;;;;;;5046747;28;20026;-90
2023/12/14 02:30:18;;;;;;;3.30;3.00;;;6.00;71.70;;;;;;5026723;28;20125;-91
2023/12/14 02:32:44;;;;;;;3.70;3.10;;;6.00;71.60;;;;;;5026819;28;20121;-87
2023/12/14 02:35:10;;;;;;;3.90;3.10;;;6.00;71.60;;;;;;5037842;28;20041;-89
2023/12/14 02:37:37;;;;;;;3.63;3.10;;;6.00;71.60;;;;;;5018844;28;20077;-90
2023/12/14 02:40:04;;;;;;;3.67;3.03;;;6.00;71.60;;;;;;5032956;28;20112;-89
2023/12/14 02:42:30;;;;;;;3.72;3.00;;;6.00;71.60;;;;;;5031366;28;20033;-89
2023/12/14 02:44:57;;;;;;;3.65;2.90;;;6.00;71.70;;;;;;5038252;28;20059;-89
2023/12/14 02:47:22;;;;;;;3.03;2.50;;;6.00;71.70;;;;;;5019769;28;20091;-92
2023/12/14 02:49:48;;;;;;;3.22;2.67;;;6.00;71.70;;;;;;5034899;28;20037;-91
2023/12/14 02:52:14;;;;;;;2.85;2.60;;;6.00;71.70;;;;;;5037260;28;20045;-91
2023/12/14 02:54:40;;;;;;;3.00;2.70;;;6.00;71.70;;;;;;5037456;28;20041;-91
2023/12/14 02:57:06;;;;;;;3.63;2.97;;;6.00;71.60;;;;;;5037426;28;20061;-89
2023/12/14 02:59:32;;;;;;;3.38;2.80;;;5.90;71.50;;;;;;5037707;28;20395;-92
2023/12/14 03:01:58;;;;;;;3.80;2.70;;;5.90;71.60;;;;;;5041552;28;20105;-91
2023/12/14 03:04:24;;;;;;;3.22;2.90;;;5.90;71.60;;;;;;5019500;28;20030;-91
2023/12/14 03:06:50;;;;;;;3.30;2.83;;;5.90;71.70;;;;;;5035669;28;20104;-90
2023/12/14 03:09:15;;;;;;;2.80;2.50;;;5.90;71.70;;;;;;5036168;28;20030;-91
2023/12/14 03:11:41;;;;;;;3.33;2.88;;;5.90;71.70;;;;;;5036276;28;20053;-90
2023/12/14 03:14:07;;;;;;;3.58;3.00;;;5.90;71.70;;;;;;5018904;28;20124;-91
2023/12/14 03:16:35;;;;;;;3.33;2.85;;;5.90;71.70;;;;;;5035810;28;20021;-90
2023/12/14 03:19:01;;;;;;;3.25;2.90;;;5.90;71.70;;;;;;5035637;28;20022;-91
2023/12/14 03:21:27;;;;;;;3.55;2.88;;;5.90;71.70;;;;;;5036688;28;20037;-90
2023/12/14 03:23:52;;;;;;;2.75;2.55;;;5.80;72.20;;;;;;5037407;28;20029;-89
2023/12/14 03:26:18;;;;;;;2.83;2.63;;;5.80;71.70;;;;;;5036652;28;20499;-92
2023/12/14 03:28:44;;;;;;;3.50;2.90;;;5.80;71.70;;;;;;5040711;28;20033;-89
2023/12/14 03:31:13;;;;;;;3.45;2.72;;;5.80;71.80;;;;;;5039877;28;20029;-91
2023/12/14 03:33:40;;;;;;;3.78;2.65;;;5.80;71.80;;;;;;5040853;28;20033;-90
2023/12/14 03:36:07;;;;;;;2.83;2.40;;;5.80;71.80;;;;;;5040350;28;20029;-91
2023/12/14 03:38:33;;;;;;;3.08;2.55;;;5.80;71.80;;;;;;5041483;28;20542;-90
2023/12/14 03:41:00;;;;;;;3.03;2.60;;;5.80;71.70;;;;;;5022434;28;20128;-89
2023/12/14 03:43:25;;;;;;;3.03;2.40;;;5.80;71.80;;;;;;5023592;28;20087;-90
2023/12/14 03:45:51;;;;;;;3.15;2.80;;;5.80;71.80;;;;;;5040160;28;20030;-89
2023/12/14 03:48:17;;;;;;;2.85;2.50;;;5.80;71.70;;;;;;5040187;28;20029;-91
2023/12/14 03:50:43;;;;;;;3.10;2.80;;;5.80;71.70;;;;;;5039403;28;20026;-87
2023/12/14 03:53:09;;;;;;;2.50;2.30;;;5.80;71.70;;;;;;5039914;28;20475;-91
2023/12/14 03:55:34;;;;;;;2.83;2.50;;;5.80;71.70;;;;;;5041204;28;20037;-91
2023/12/14 03:58:00;;;;;;;3.05;2.75;;;5.80;72.20;;;;;;5041274;28;20445;-90
2023/12/14 04:00:26;;;;;;;2.63;2.42;;;5.80;71.70;;;;;;5025143;28;20045;-89
2023/12/14 04:02:52;;;;;;;3.10;2.70;;;5.80;71.70;;;;;;5029771;28;20033;-90
2023/12/14 04:05:18;;;;;;;3.05;2.75;;;5.80;71.70;;;;;;5048534;28;20036;-91
2023/12/14 04:07:44;;;;;;;3.30;2.80;;;5.80;71.70;;;;;;5029915;28;20467;-91
2023/12/14 04:10:10;;;;;;;3.10;2.63;;;5.80;71.60;;;;;;5047846;28;20021;-91
2023/12/14 04:12:37;;;;;;;3.63;2.95;;;5.80;71.60;;;;;;5030202;28;20037;-91
2023/12/14 04:15:08;;;;;;;3.42;2.90;;;5.80;71.60;;;;;;5025948;28;20029;-91
2023/12/14 04:17:34;;;;;;;3.20;2.90;;;5.80;71.60;;;;;;5028168;28;20026;-91
2023/12/14 04:20:00;;;;;;;3.15;2.85;;;5.80;71.60;;;;;;5042345;28;20526;-89
2023/12/14 04:22:26;;;;;;;3.40;2.80;;;5.80;71.60;;;;;;5042073;28;20390;-91
2023/12/14 04:24:53;;;;;;;4.35;3.17;;;5.80;71.60;;;;;;5023876;28;20057;-90
2023/12/14 04:27:18;;;;;;;4.03;3.30;;;5.80;71.60;;;;;;5024073;28;20029;-91
2023/12/14 04:29:44;;;;;;;3.17;2.88;;;5.80;71.60;;;;;;5044198;28;20026;-90
2023/12/14 04:32:11;;;;;;;2.92;2.63;;;5.80;71.60;;;;;;5041104;28;20021;-91
2023/12/14 04:34:37;;;;;;;3.03;2.72;;;5.80;71.60;;;;;;5023582;28;20029;-92
2023/12/14 04:37:06;;;;;;;2.67;2.47;;;5.80;71.60;;;;;;5022551;28;20033;-90
2023/12/14 04:39:32;;;;;;;3.05;2.60;;;5.80;71.60;;;;;;5023116;28;20042;-90
2023/12/14 04:41:58;;;;;;;3.35;2.67;;;5.80;71.50;;;;;;5023512;28;20496;-92
2023/12/14 04:44:24;;;;;;;2.63;2.42;;;5.90;71.60;;;;;;5022627;28;20041;-90
2023/12/14 04:46:50;;;;;;;2.85;2.50;;;5.90;71.50;;;;;;5033373;28;20025;-89
2023/12/14 04:49:16;;;;;;;3.00;2.70;;;5.80;71.40;;;;;;5018233;28;20539;-88
2023/12/14 04:51:42;;;;;;;3.55;2.80;;;5.80;72.00;;;;;;5020097;28;20037;-91
2023/12/14 04:54:08;;;;;;;2.90;2.65;;;5.80;71.40;;;;;;5019942;28;21103;-90
2023/12/14 04:56:34;;;;;;;3.15;2.70;;;5.80;71.40;;;;;;5020029;28;20041;-91
2023/12/14 04:59:00;;;;;;;2.72;2.40;;;5.90;71.40;;;;;;5019167;28;20034;-89
2023/12/14 05:01:29;;;;;;;2.63;2.30;;;5.90;71.40;;;;;;5019794;28;20031;-90
2023/12/14 05:03:55;;;;;;;2.78;2.40;;;5.80;71.30;;;;;;5018448;28;20112;-90
2023/12/14 05:06:21;;;;;;;3.30;2.65;;;5.80;71.30;;;;;;5036380;28;20033;-90
2023/12/14 05:08:47;;;;;;;3.13;2.67;;;5.80;71.30;;;;;;5021296;28;20029;-89
2023/12/14 05:11:13;;;;;;;3.13;2.47;;;5.80;71.40;;;;;;5043316;28;20127;-90
2023/12/14 05:13:40;;;;;;;2.60;2.40;;;5.70;71.40;;;;;;5034457;28;20033;-90
2023/12/14 05:16:06;;;;;;;2.78;2.50;;;5.80;71.40;;;;;;5036382;28;20130;-91
2023/12/14 05:18:32;;;;;;;3.22;2.75;;;5.80;71.40;;;;;;5035262;28;20033;-91
2023/12/14 05:20:59;;;;;;;2.60;2.40;;;5.80;71.40;;;;;;5035939;28;20031;-91
2023/12/14 05:23:25;;;;;;;2.35;2.15;;;5.80;71.40;;;;;;5000065;28;20041;-89
2023/12/14 05:25:50;;;;;;;2.53;2.33;;;5.80;71.40;;;;;;5035931;28;20037;-90
2023/12/14 05:28:16;;;;;;;2.47;2.28;;;5.80;71.50;;;;;;5036155;28;20029;-90
2023/12/14 05:30:42;;;;;;;2.03;1.92;;;5.80;71.50;;;;;;5036121;28;20053;-90
2023/12/14 05:33:08;;;;;;;2.55;2.15;;;5.80;71.50;;;;;;5017425;28;20048;-89
2023/12/14 05:35:34;;;;;;;2.20;2.00;;;5.80;71.50;;;;;;5036023;28;20030;-89
2023/12/14 05:38:01;;;;;;;2.08;1.98;;;5.80;71.40;;;;;;5034905;28;20045;-87
2023/12/14 05:40:26;;;;;;;2.00;1.90;;;5.80;71.40;;;;;;5035663;28;20037;-90
2023/12/14 05:42:52;;;;;;;2.28;2.08;;;5.80;71.40;;;;;;5036277;28;20336;-90
2023/12/14 05:45:21;;;;;;;2.30;2.10;;;5.70;71.40;;;;;;5021815;28;20029;-91
2023/12/14 05:47:46;;;;;;;2.42;2.22;;;5.80;71.50;;;;;;5040077;28;20085;-91
2023/12/14 05:50:12;;;;;;;2.45;2.22;;;5.70;72.00;;;;;;5043490;28;20072;-89
2023/12/14 05:52:40;;;;;;;2.63;2.42;;;5.80;71.50;;;;;;5024108;28;20064;-90
2023/12/14 05:55:11;;;;;;;2.10;2.00;;;5.80;71.40;;;;;;5034742;28;20045;-89
2023/12/14 05:57:37;;;;;;;2.10;2.00;;;5.80;71.40;;;;;;5026927;28;20034;-91
2023/12/14 06:00:05;;;;;;;1.83;1.73;;;5.80;71.40;;;;;;5043376;28;20033;-88
2023/12/14 06:02:32;;;;;;;2.28;1.90;;;5.70;71.90;;;;;;5016765;28;20029;-90
2023/12/14 06:04:58;;;;;;;2.05;1.95;;;5.70;71.30;;;;;;5019250;28;20035;-91
2023/12/14 06:07:24;;;;;;;2.00;1.90;;;5.80;71.40;;;;;;5019788;28;20022;-91
2023/12/14 06:09:50;;;;;;;2.00;1.90;;;5.70;71.40;;;;;;5038173;28;20026;-91
2023/12/14 06:12:16;;;;;;;2.05;1.85;;;5.80;71.40;;;;;;5037860;28;20037;-90
2023/12/14 06:14:42;;;;;;;2.03;1.92;;;5.70;71.40;;;;;;5017295;28;20042;-90
2023/12/14 06:17:08;;;;;;;2.17;1.98;;;5.80;71.40;;;;;;5034967;28;20052;-88
2023/12/14 06:19:33;;;;;;;2.00;1.80;;;5.70;71.30;;;;;;5036004;28;20117;-90
2023/12/14 06:21:59;;;;;;;2.00;1.90;;;5.70;71.30;;;;;;5036043;28;20039;-90
2023/12/14 06:24:25;;;;;;;2.20;2.10;;;5.70;71.20;;;;;;5016280;28;20026;-89
2023/12/14 06:26:51;;;;;;;2.30;2.10;;;5.80;71.30;;;;;;5032475;28;20031;-89
2023/12/14 06:29:16;;;;;;;2.00;1.90;;;5.80;71.30;;;;;;5035774;28;20025;-91
2023/12/14 06:31:44;;;;;;;2.92;2.63;;;5.70;71.20;;;;;;5036545;28;20041;-91
2023/12/14 06:34:10;;;;;;;2.40;2.20;;;5.70;71.30;;;;;;5019809;28;20045;-89
2023/12/14 06:36:41;;;;;;;2.30;2.10;;;5.80;71.30;;;;;;5020165;28;20034;-91
2023/12/14 06:39:07;;;;;;;2.42;2.22;;;5.70;71.40;;;;;;5019945;28;20037;-90
2023/12/14 06:41:33;;;;;;;2.58;2.38;;;5.80;71.30;;;;;;5038175;28;20064;-88
2023/12/14 06:43:59;;;;;;;2.35;2.15;;;5.80;71.30;;;;;;5038376;28;20433;-91
2023/12/14 06:46:24;;;;;;;3.22;2.22;;;5.80;71.20;;;;;;5037492;28;20497;-89
2023/12/14 06:48:50;;;;;;;2.25;2.10;;;5.80;71.30;;;;;;5018644;28;20114;-92
2023/12/14 06:51:16;;;;;;;2.40;2.20;;;5.80;71.20;;;;;;5037861;28;20022;-91
2023/12/14 06:53:43;;;;;;;2.40;2.20;;;5.80;71.10;;;;;;5018833;28;20072;-91
2023/12/14 06:56:10;;;;;;;2.58;2.35;;;5.90;71.20;;;;;;5037824;28;20053;-90
2023/12/14 06:58:38;;;;;;;2.50;2.30;;;5.90;71.10;;;;;;5017966;28;20559;-91
2023/12/14 07:01:05;;;;;;;2.40;2.20;;;5.90;71.20;;;;;;5021333;28;20357;-92
2023/12/14 07:03:30;;;;;;;2.47;2.28;;;5.90;71.10;;;;;;5044517;28;20017;-91
2023/12/14 07:05:57;;;;;;;2.38;2.17;;;5.90;71.20;;;;;;5035132;28;20033;-89
2023/12/14 07:08:23;;;;;;;2.75;2.17;;;5.90;71.70;;;;;;5020012;28;20056;-90
2023/12/14 07:10:49;;;;;;;2.22;2.08;;;5.90;71.10;;;;;;5041220;28;20535;-90
2023/12/14 07:13:17;;;;;;;2.38;2.17;;;5.90;71.10;;;;;;5044301;28;20033;-92
2023/12/14 07:15:44;;;;;;;2.47;2.20;;;6.00;71.10;;;;;;5024288;28;20025;-90
2023/12/14 07:18:09;;;;;;;2.50;2.30;;;6.00;71.10;;;;;;5019730;28;20040;-89
2023/12/14 07:20:35;;;;;;;2.83;2.20;;;6.00;71.00;;;;;;5022482;28;20109;-91
2023/12/14 07:23:01;;;;;;;2.50;2.30;;;6.00;71.00;;;;;;5035936;28;20057;-90
2023/12/14 07:25:27;;;;;;;2.40;2.20;;;6.00;71.00;;;;;;5042026;28;20037;-88
2023/12/14 07:27:52;;;;;;;2.33;2.13;;;6.00;71.00;;;;;;5041891;28;20030;-92
2023/12/14 07:30:21;;;;;;;2.58;2.33;;;6.00;70.90;;;;;;5045630;28;20033;-92
2023/12/14 07:32:47;;;;;;;2.50;2.30;;;6.10;71.00;;;;;;5050897;28;20022;-90
2023/12/14 07:35:13;;;;;;;2.22;2.03;;;6.00;71.50;;;;;;5028028;28;20113;-90
2023/12/14 07:37:39;;;;;;;2.55;2.35;;;6.10;71.00;;;;;;5029867;28;20064;-91
2023/12/14 07:40:05;;;;;;;2.80;2.60;;;6.10;71.00;;;;;;5047851;28;20510;-91
2023/12/14 07:42:31;;;;;;;2.45;2.20;;;6.10;70.90;;;;;;5028744;28;20034;-91
2023/12/14 07:44:57;;;;;;;2.72;2.53;;;6.10;71.00;;;;;;5043699;28;20038;-92
2023/12/14 07:47:23;;;;;;;2.60;2.40;;;6.10;70.90;;;;;;5024269;28;20403;-89
2023/12/14 07:49:49;;;;;;;3.28;2.72;;;6.10;70.90;;;;;;5023207;28;20084;-90
2023/12/14 07:52:14;;;;;;;3.33;2.65;;;6.10;70.90;;;;;;5040235;28;20045;-88
2023/12/14 07:54:40;;;;;;;2.70;2.50;;;6.10;70.90;;;;;;5043203;28;20072;-88
2023/12/14 07:57:06;;;;;;;2.83;2.50;;;6.10;70.90;;;;;;5044369;28;20538;-90
2023/12/14 07:59:32;;;;;;;2.88;2.58;;;6.10;70.90;;;;;;5046704;28;20040;-88
2023/12/14 08:01:58;;;;;;;3.67;2.72;;;6.20;71.50;;;;;;5051910;28;20057;-88
2023/12/14 08:04:25;;;;;;;4.57;2.85;;;6.20;71.00;;;;;;5030875;28;20030;-86
2023/12/14 08:06:51;;;;;;;2.85;2.55;;;6.20;71.00;;;;;;5041611;28;20025;-84
2023/12/14 08:09:17;;;;;;;3.13;2.60;;;6.20;70.90;;;;;;5039571;28;20047;-86
2023/12/14 08:11:43;;;;;;;3.08;2.75;;;6.20;71.00;;;;;;5018588;28;20045;-84
2023/12/14 08:14:08;;;;;;;4.40;2.53;;;6.20;71.00;;;;;;5016358;28;20041;-90
2023/12/14 08:16:34;;;;;;;4.72;2.90;;;6.20;71.00;;;;;;5042473;28;20033;-89
2023/12/14 08:19:00;;;;;;;4.03;3.38;;;6.20;71.00;;;;;;5028871;28;20022;-87
2023/12/14 08:21:26;;;;;;;4.10;3.20;;;6.20;71.00;;;;;;5026716;28;20048;-87
2023/12/14 08:23:51;;;;;;;4.18;3.20;;;6.20;71.10;;;;;;5035935;28;20032;-88
2023/12/14 08:26:17;;;;;;;4.40;3.25;;;6.20;71.10;;;;;;5035094;28;20117;-86
2023/12/14 08:28:43;;;;;;;3.83;3.00;;;6.20;71.10;;;;;;5036737;28;20073;-88
2023/12/14 08:31:11;;;;;;;3.63;3.03;;;6.20;71.10;;;;;;5035073;28;20045;-87
2023/12/14 08:33:37;;;;;;;4.55;3.45;;;6.30;71.10;;;;;;5035451;28;20154;-86
2023/12/14 08:36:05;;;;;;;4.88;3.50;;;6.30;71.10;;;;;;5017617;28;20483;-88
2023/12/14 08:38:31;;;;;;;4.97;3.20;;;6.30;71.10;;;;;;5017711;28;20029;-87
2023/12/14 08:40:57;;;;;;;3.53;3.10;;;6.30;71.10;;;;;;5017416;28;20029;-89
2023/12/14 08:43:22;;;;;;;3.78;3.08;;;6.30;71.10;;;;;;5036276;28;20034;-87
2023/12/14 08:45:48;;;;;;;6.07;3.58;;;6.30;71.10;;;;;;5036817;28;20100;-86
2023/12/14 08:48:14;;;;;;;4.68;3.38;;;6.30;71.10;;;;;;5034542;28;20040;-86
2023/12/14 08:50:40;;;;;;;5.03;3.22;;;6.40;71.10;;;;;;5035143;28;20072;-85
2023/12/14 08:53:06;;;;;;;4.28;3.28;;;6.30;71.10;;;;;;5033595;28;20117;-86
2023/12/14 08:55:32;;;;;;;5.13;3.40;;;6.40;71.20;;;;;;5021573;28;20038;-86
2023/12/14 08:57:58;;;;;;;3.95;3.08;;;6.40;71.30;;;;;;5022508;28;20042;-86
2023/12/14 09:00:24;;;;;;;5.38;3.42;;;6.40;71.30;;;;;;4997990;28;20026;-87
2023/12/14 09:02:50;;;;;;;4.85;3.80;;;6.40;71.30;;;;;;4997497;28;20057;-83
2023/12/14 09:05:16;;;;;;;4.63;3.47;;;6.40;71.30;;;;;;5003356;28;20064;-90
2023/12/14 09:07:43;;;;;;;5.28;3.95;;;6.40;71.40;;;;;;5002209;28;20080;-84
2023/12/14 09:10:09;;;;;;;5.78;3.90;;;6.50;71.40;;;;;;5013720;28;20057;-83
2023/12/14 09:12:35;;;;;;;4.72;3.65;;;6.50;71.40;;;;;;5014269;28;20069;-82
2023/12/14 09:15:01;;;;;;;4.80;3.33;;;6.50;71.40;;;;;;5015662;28;20030;-84
2023/12/14 09:17:32;;;;;;;5.22;3.78;;;6.50;71.30;;;;;;5018097;28;20064;-84
2023/12/14 09:19:59;;;;;;;5.70;3.80;;;6.50;71.40;;;;;;5000314;28;20061;-82
2023/12/14 09:22:25;;;;;;;4.00;3.40;;;6.50;71.40;;;;;;5018126;28;20026;-84
2023/12/14 09:24:51;;;;;;;4.60;3.63;;;6.50;71.50;;;;;;5020840;28;20034;-85
2023/12/14 09:27:17;;;;;;;4.70;3.50;;;6.50;72.10;;;;;;5020298;28;20041;-84
2023/12/14 09:29:43;;;;;;;5.63;3.78;;;6.50;71.40;;;;;;5026835;28;20406;-82
2023/12/14 09:32:09;;;;;;;4.85;3.17;;;6.60;71.60;;;;;;5025359;28;20036;-82
2023/12/14 09:34:35;;;;;;;6.30;3.40;;;6.50;71.50;;;;;;4995496;28;20035;-82
2023/12/14 09:37:01;;;;;;;4.82;3.58;;;6.60;71.70;;;;;;4977843;28;20026;-85
2023/12/14 09:39:27;;;;;;;4.93;3.80;;;6.60;71.70;;;;;;5013216;28;20034;-84
2023/12/14 09:42:05;;;;;;;5.28;3.40;;;6.60;71.70;;;;;;4996546;28;20022;-83
2023/12/14 09:44:31;;;;;;;5.18;3.72;;;6.60;71.70;;;;;;4996070;28;20038;-83
2023/12/14 09:47:02;;;;;;;4.65;3.20;;;6.60;71.70;;;;;;5014988;28;20034;-84
2023/12/14 09:49:30;;;;;;;4.93;3.65;;;6.60;71.70;;;;;;5013544;28;20026;-80
2023/12/14 09:51:59;;;;;;;5.43;4.05;;;6.60;71.80;;;;;;5015047;28;20030;-83
2023/12/14 09:54:28;;;;;;;5.85;4.15;;;6.70;71.80;;;;;;5015319;28;20095;-83
2023/12/14 09:56:54;;;;;;;6.30;4.38;;;6.70;71.90;;;;;;5033427;28;20471;-83
2023/12/14 09:59:20;;;;;;;6.80;4.63;;;6.70;71.90;;;;;;5033519;28;20091;-82
2023/12/14 10:01:46;;;;;;;7.40;4.80;;;6.70;71.90;;;;;;5033452;28;20101;-83
2023/12/14 10:04:14;;;;;;;6.53;4.57;;;6.70;72.00;;;;;;4999153;28;20128;-82
2023/12/14 10:06:43;;;;;;;7.93;4.68;;;6.70;72.10;;;;;;5033838;28;20033;-82
2023/12/14 10:09:09;;;;;;;6.93;4.80;;;6.70;72.20;;;;;;5032951;28;20033;-82
2023/12/14 10:11:36;;;;;;;6.05;4.50;;;6.70;72.20;;;;;;5032959;28;20437;-82
2023/12/14 10:14:04;;;;;;;6.53;4.28;;;6.70;72.30;;;;;;5033117;28;20490;-83
2023/12/14 10:16:33;;;;;;;6.32;4.35;;;6.70;72.40;;;;;;5014760;28;20533;-83
2023/12/14 10:19:00;;;;;;;6.07;4.18;;;6.70;72.50;;;;;;5034342;28;20039;-84
2023/12/14 10:21:28;;;;;;;7.68;4.30;;;6.70;72.60;;;;;;5033946;28;20023;-84
2023/12/14 10:23:58;;;;;;;6.50;4.28;;;6.70;72.60;;;;;;5016601;28;20491;-83
2023/12/14 10:26:25;;;;;;;7.53;4.60;;;6.70;72.60;;;;;;5016281;28;20025;-81
2023/12/14 10:28:51;;;;;;;5.82;4.13;;;6.70;73.20;;;;;;5033872;28;20028;-84
2023/12/14 10:31:19;;;;;;;6.72;4.35;;;6.70;72.70;;;;;;5048616;28;20029;-81
2023/12/14 10:33:45;;;;;;;6.10;4.45;;;6.70;72.70;;;;;;5053660;28;20128;-82
2023/12/14 10:36:17;;;;;;;6.43;4.53;;;6.80;72.80;;;;;;5033462;28;20510;-77
2023/12/14 10:38:48;;;;;;;5.80;4.60;;;6.80;72.80;;;;;;5048676;28;20043;-79
2023/12/14 10:41:15;;;;;;;5.80;4.13;;;6.80;72.90;;;;;;5014464;28;20053;-82
2023/12/14 10:43:42;;;;;;;5.57;3.97;;;6.80;72.80;;;;;;5048875;28;20491;-80
2023/12/14 10:46:10;;;;;;;4.72;3.90;;;6.70;72.80;;;;;;5015942;28;20040;-81
2023/12/14 10:48:42;;;;;;;5.53;3.80;;;6.80;73.00;;;;;;5015693;28;20442;-84
2023/12/14 10:51:10;;;;;;;4.93;3.78;;;6.70;73.10;;;;;;5033520;28;20033;-82
2023/12/14 10:53:37;;;;;;;4.47;3.60;;;6.70;73.10;;;;;;5032915;28;20046;-78
2023/12/14 10:56:06;;;;;;;4.85;3.65;;;6.70;73.20;;;;;;5033243;28;20029;-83
2023/12/14 10:58:48;;;;;;;4.18;3.60;;;6.70;73.30;;;;;;5034347;28;20030;-81
2023/12/14 11:01:16;;;;;;;4.18;3.42;;;6.70;73.40;;;;;;5053744;28;20502;-83
2023/12/14 11:03:44;;;;;;;4.20;3.35;;;6.80;73.40;;;;;;5016224;28;20057;-78
2023/12/14 11:06:30;;;;;;;3.58;3.10;;;6.80;73.40;;;;;;5033713;28;20029;-81
2023/12/14 11:09:07;;;;;;;4.82;3.65;;;6.80;73.40;;;;;;5049635;28;20041;-83
2023/12/14 11:11:53;;;;;;;4.22;3.55;;;6.80;73.50;;;;;;5014059;28;20433;-80
2023/12/14 11:14:19;;;;;;;;;;;6.80;73.50;;;;;;5025974;28;20029;-77
2023/12/14 11:16:46;;;;;;;3.75;3.28;;;6.80;73.90;;;;;;5015539;28;19909;-81
2023/12/14 11:19:21;;;;;;;5.13;3.83;;;6.80;73.50;;;;;;5015664;28;20088;-79
2023/12/14 11:21:55;;;;;;;5.40;4.03;;;6.80;73.50;;;;;;5015693;28;20030;-81
2023/12/14 11:24:21;;;;;;;5.35;4.30;;;6.80;73.50;;;;;;5032421;28;20116;-82
2023/12/14 11:26:50;;;;;;;5.07;3.88;;;6.80;73.60;;;;;;5020909;28;20113;-81
2023/12/14 11:29:19;;;;;;;4.63;3.83;;;6.80;73.60;;;;;;5017713;28;20088;-82
2023/12/14 11:31:45;;;;;;;4.93;3.97;;;6.80;73.70;;;;;;5011788;28;20025;-82
2023/12/14 11:34:12;;;;;;;3.97;3.47;;;6.80;73.80;;;;;;5030559;28;20464;-81
2023/12/14 11:36:41;;;;;;;4.30;3.78;;;6.80;73.80;;;;;;5014363;28;20036;-75
2023/12/14 11:39:09;;;;;;;4.68;3.65;;;6.80;73.80;;;;;;5012744;28;20479;-75
2023/12/14 11:41:36;;;;;;;3.85;3.33;;;6.80;74.40;;;;;;5012449;28;20030;-77
2023/12/14 11:44:03;;;;;;;3.88;3.47;;;6.90;73.90;;;;;;5012440;28;20030;-77
2023/12/14 11:46:30;;;;;;;3.75;3.35;;;6.90;73.90;;;;;;5012915;28;20035;-76
2023/12/14 11:48:57;;;;;;;4.18;3.65;;;6.90;73.90;;;;;;5033333;28;20025;-79
2023/12/14 11:51:25;;;;;;;3.88;3.20;;;6.90;74.00;;;;;;5016969;28;20084;-79
2023/12/14 11:53:51;;;;;;;3.88;3.33;;;6.90;74.00;;;;;;5033728;28;20038;-79
2023/12/14 11:56:18;;;;;;;3.78;3.33;;;6.90;74.00;;;;;;5015434;28;20052;-77
2023/12/14 11:58:45;;;;;;;3.78;3.20;;;6.90;74.00;;;;;;5019194;28;20471;-75
2023/12/14 12:01:18;;;;;;;3.80;3.38;;;7.00;74.10;;;;;;5035918;28;20379;-76
2023/12/14 12:03:45;;;;;;;4.30;3.70;;;6.90;74.00;;;;;;5017085;28;20360;-78
2023/12/14 12:06:27;;;;;;;4.13;3.60;;;7.00;74.00;;;;;;5016105;28;20033;-76
2023/12/14 12:08:54;;;;;;;4.45;3.28;;;7.10;74.70;;;;;;5016550;28;20356;-77
2023/12/14 12:11:25;;;;;;;3.75;3.38;;;7.00;74.00;;;;;;5033591;28;20515;-76
2023/12/14 12:13:57;;;;;;;9.15;4.25;;;7.10;74.10;;;;;;5015774;28;20029;-76
2023/12/14 12:16:23;;;;;;;4.28;3.42;;;7.00;74.00;;;;;;5035563;28;20033;-79
2023/12/14 12:18:52;;;;;;;4.15;3.40;;;7.10;74.10;;;;;;5036074;28;20117;-81
2023/12/14 12:21:18;;;;;;;4.53;3.55;;;7.10;74.10;;;;;;5038854;28;20033;-77
2023/12/14 12:23:44;;;;;;;3.90;3.22;;;7.10;74.10;;;;;;5014960;28;20498;-79
2023/12/14 12:26:10;;;;;;;3.45;3.15;;;7.10;74.10;;;;;;5014858;28;20040;-76
2023/12/14 12:28:36;;;;;;;4.70;3.55;;;7.10;74.10;;;;;;5033440;28;20038;-80
2023/12/14 12:31:03;;;;;;;4.43;3.70;;;7.10;74.10;;;;;;5015233;28;20104;-80
2023/12/14 12:33:29;;;;;;;4.10;3.63;;;7.10;74.10;;;;;;5015865;28;20143;-78
2023/12/14 12:35:55;;;;;;;4.00;3.40;;;7.20;74.10;;;;;;5033439;28;20105;-78
2023/12/14 12:38:21;;;;;;;4.40;3.47;;;7.20;74.20;;;;;;5014977;28;20029;-78
2023/12/14 12:40:47;;;;;;;3.90;3.42;;;7.20;74.20;;;;;;5015372;28;20037;-77
2023/12/14 12:43:17;;;;;;;4.43;3.83;;;7.10;74.20;;;;;;5015702;28;20033;-75
2023/12/14 12:45:43;;;;;;;3.75;3.42;;;7.10;74.20;;;;;;5019103;28;20030;-79
2023/12/14 12:48:10;;;;;;;4.28;3.88;;;7.20;74.40;;;;;;5033092;28;20034;-78
2023/12/14 12:50:35;;;;;;;3.95;3.53;;;7.20;74.40;;;;;;5033138;28;20028;-79
2023/12/14 12:53:01;;;;;;;4.82;3.60;;;7.20;74.40;;;;;;5025114;28;20387;-78
2023/12/14 12:55:27;;;;;;;3.80;3.38;;;7.20;74.50;;;;;;5028361;28;20058;-80